• NOTAM LFGB

     18/10/22 12:00Z - 17/01/23 11:59Z
    DISTANCES DECLAREES PISTE 02R/20L: PISTE RACCOURCIE DE 50M AU SEUIL 02R TODA 915 ASDA 915 LDA 915

     24/10/22 06:00Z - 31/03/23 11:59Z
    FERMETURE TAXIWAY B CAUSE TRAVAUX.

    NOTAM LFSB

     30/10/22 04:00Z - 29/01/23 11:59Z
    REF: AD2 LFSB AD2.21.1.3.1 : LIRE : D) SOUS RESERVE DES DISPOSITIONS SPECIFIQUES PREVUES AU E), AUCUN VOL COMMERCIAL NE PEUT QUITTER LE POINT DE STATIONNEMENT ENTRE 2200 ET 2300. E) LES DISPOSITIONS DU D) NE FONT PAS OBSTACLE AU DECOLLAGE ENTRE 2200 ET 2300 DES AERONEFS EFFECTUANT DES VOLS COMMERCIAUX EN DEHORS DE LA PLAGE HORAIRE PREVUE EN D) QUI ONT ETE RETARDES POUR DES RAISONS INDEPENDANTES DE LA VOLONTE DU TRANSPORTEUR. F) LE TRANSPORTEUR AERIEN FOURNIT DANS UN DELAI DE QUARANTE-HUIT HEURES AUX SERVICES DE L'AVIATION CIVILE LES ELEMENTS RELATIFS AUX MOTIFS DU RETARD DES VOLS OPERES EN APPLICATION DU E).

     01/12 12:00Z - 14/12/22 11:59Z
    NOTAM TRIGGER - AMDT AIP AIRAC PERM 12/22 WEF 01 DEC 2022. MODIFICATIONS : - HOR GRF - NIVEAU RFFS - DONNEES MET - BALISAGE - RESTRICTIONS CIRCULATION CREATION POINT INS J4

     29/11/22 03:54Z - 31/01/23 11:59Z
    REMPLACEMENT TEMPORAIRE DU VOR/DME STR - SUP AIP AIRAC 055/22 : OBJET : IMPACT SUR STAR STR8K CE SUP AIP EST DISPONIBLE SUR WWW.SIA.AVIATION-CIVILE.GOUV.FR

     19/05 12:00Z - 31/12/22 11:59Z
    PROLONGATION DE LA MODIFICATION, A TITRE EXPERIMENTAL, DES SID RNAV RWY 15 VERS TORPA ET MOROK - SUP AIP AIRAC 056/22 : ANNEXE 4 : LIRE SB515 AU LIEU DE BS CE SUP AIP EST DISPONIBLE SUR WWW.SIA.AVIATION-CIVILE.GOUV.FR

     27/06 09:17Z - 31/12/22 11:59Z
    LES SID SUIVANTS SONT SUSPENDUS : RWY 15 LASAT 7S RWY 33 LASAT 7N LA PLANIFICATION DE CES SID EST INTERDITE REF : AD2 LFSB SID RWY 15 RNAV AD2 LFSB SID RWY 33 RNAV.

     27/06 09:08Z - 31/12/22 11:59Z
    PROCEDURE D'APPROCHE AUX INSTRUMENTS RNAV GNSS RWY33 SUSPENDUE : REF AIP : AD 2 LFSB IAC RWY33 RNP.

     27/06 09:10Z - 31/12/22 11:59Z
    APPROCHES AUX INSTRUMENTS ILS Y CAT 1 OU LOC Y RWY33 SUSPENDUES : REF AIP FRANCE : AD2 LFSB IAC RWY33 FNA-ILS Y CAT 1 LOC Y

    NOTAM LFST

    Service NotamWeb du SIA indisponible - NOTAMS inconnus

    NOTAM LFGA

     01/06/22 08:00Z - 02/02/23 11:59Z
    GRUE ERIGEE A COLMAR - RDL 189/1.4NM ARP LFGA : - PSN : 480514N 0072112E - HAUTEUR : 120FT - ALTITUDE AU SOMMET : 757FT - BALISAGE : JOUR ET NUIT.

     15/06 08:00Z - 12/12/22 11:59Z
    GRUE ERIGEE PROCHE AD : RDL/D 189/1.44NM ARP LFGA PSN: 480511N 0072112E HAUTEUR : 93FT ALTITUDE : 730FT BALISAGE : JOUR ET NUIT.

     21/04/22 12:00Z - 20/04/23 11:59Z
    EVALUATION OPERATIONNELLE D'UNE PROCEDURE IFR PINS RNP 261 SUR HELIPORT DE COLMAR HOPITAL PASTEUR - SUP AIP AIRAC 043/22 : CE SUP AIP EST DISPONIBLE SUR WWW.SIA.AVIATION-CIVILE.GOUV.FR

     29/11/22 03:43Z - 31/01/23 11:59Z
    REMPLACEMENT TEMPORAIRE DU VOR/DME STR - SUP AIP AIRAC 055/22 : OBJET : IMPACT SUR PROCEDURES D'APPROCHE CE SUP AIP EST DISPONIBLE SUR WWW.SIA.AVIATION-CIVILE.GOUV.FR











  • PHOTOS SATELLITE

CARTE TEMSI

CARTE WINTEM

  • Vent au sol

  • Vent à 2000ft

  • ANIMATION RADAR

  • METAR/TAF LFSB (BÂLE-MULHOUSE)

    LFSB 072030Z AUTO 23001KT 8000 NSC M02/M02 Q1015 NOSIG

    TAF AMD LFSB 071957Z 0719/0818 VRB03KT 9999 FEW009 TEMPO 0800/0809 4000 BR OVC004 PROB40 TEMPO 0800/0809 0500 FZFG VV/// BECMG 0809/0812 34005KT PROB30 TEMPO 0816/0818 4000 BR BKN010

    METAR/TAF LFST (STRASBOURG / Entzheim)

    LFST 072030Z AUTO 15003KT CAVOK 01/M01 Q1015 TEMPO 2500 BR

    TAF LFST 071700Z 0718/0818 36005KT 9999 BKN020 PROB40 TEMPO 0721/0809 2500 BR

    METAR/TAF LFGA (COLMAR / Houssen)

    LFGA 072030Z AUTO 27003KT 9999 OVC043 03/00 Q1015

    METAR/TAF LFSX

    LFSX 072030Z AUTO 29003KT 6000 NSC M01/M01 Q1015

    TAF AMD LFSX 071413Z 0715/0815 35005KT 9999 BKN030 BECMG 0716/0718 BKN007 PROB30 TEMPO 0800/0809 2500 -SN BR BKN003 BECMG 0810/0812 BKN015

    METAR/TAF LFSD (DIJON / Longvic)

    LFSD 072030Z AUTO 32007KT CAVOK M00/M01 Q1015

RESERVATION